createdAt,value
2023-05-05T00:00:13.758Z,70.2183
2023-05-05T00:01:14.809Z,70.8101
2023-05-05T00:02:15.424Z,70.7805
2023-05-05T00:03:16.730Z,71.3727
2023-05-05T00:04:18.039Z,71.0688
2023-05-05T00:05:18.293Z,70.9722
2023-05-05T00:06:18.840Z,70.7172
2023-05-05T00:07:19.366Z,70.5691
2023-05-05T00:08:19.678Z,70.6166
2023-05-05T00:09:20.233Z,70.5247
2023-05-05T00:10:21.108Z,70.5352
2023-05-05T00:11:22.177Z,70.7061
2023-05-05T00:12:22.752Z,71.2481
2023-05-05T00:13:23.906Z,71.7979
2023-05-05T00:14:24.702Z,72.0120
2023-05-05T00:15:25.265Z,72.2582
2023-05-05T00:16:26.065Z,72.4867
2023-05-05T00:17:26.985Z,72.7315
2023-05-05T00:18:28.135Z,72.8028
2023-05-05T00:19:28.868Z,73.1705
2023-05-05T00:20:30.070Z,73.3887
2023-05-05T00:21:30.842Z,73.5615
2023-05-05T00:22:31.664Z,73.5490
2023-05-05T00:23:32.228Z,73.7808
2023-05-05T00:24:32.881Z,73.8574
2023-05-05T00:25:33.534Z,74.0152
2023-05-05T00:26:34.265Z,74.4171
2023-05-05T00:27:35.079Z,74.6609
2023-05-05T00:28:35.635Z,74.6520
2023-05-05T00:29:36.427Z,74.8375
2023-05-05T00:30:37.330Z,74.9269
2023-05-05T00:31:38.190Z,74.7252
2023-05-05T00:32:39.155Z,74.5216
2023-05-05T00:33:39.786Z,74.5076
2023-05-05T00:34:40.648Z,74.5778
2023-05-05T00:35:41.558Z,74.7205
2023-05-05T00:36:43.289Z,74.6755
2023-05-05T00:37:43.320Z,74.7939
2023-05-05T00:38:44.078Z,74.7346
2023-05-05T00:39:45.009Z,74.7365
2023-05-05T00:40:45.929Z,74.4225
2023-05-05T00:41:46.637Z,74.1394
2023-05-05T00:42:47.538Z,74.2142
2023-05-05T00:43:48.382Z,74.0055
2023-05-05T00:44:48.970Z,74.2328
2023-05-05T00:45:49.610Z,74.2448
2023-05-05T00:46:50.643Z,74.3788
2023-05-05T00:47:51.825Z,74.3126
2023-05-05T00:48:53.918Z,74.3044
2023-05-05T00:49:53.577Z,75.0215
2023-05-05T00:50:54.483Z,74.8839
2023-05-05T00:51:55.331Z,75.1171
2023-05-05T00:52:56.016Z,75.2984
2023-05-05T00:53:56.963Z,75.4321
2023-05-05T00:54:57.617Z,75.4921
2023-05-05T00:55:58.344Z,76.0075
2023-05-05T00:56:59.269Z,76.2031
2023-05-05T00:57:59.882Z,76.3814
2023-05-05T00:59:01.470Z,76.3770
2023-05-05T01:00:01.207Z,76.4981
2023-05-05T01:01:01.929Z,76.7824
2023-05-05T01:02:02.796Z,77.0477
2023-05-05T01:04:22.425Z,77.4921
2023-05-05T01:05:23.413Z,77.5850
2023-05-05T01:11:30.482Z,76.0790
2023-05-05T01:12:31.813Z,75.4850
2023-05-05T01:18:37.687Z,73.9017
2023-05-05T01:19:38.273Z,73.8670
2023-05-05T01:20:39.394Z,73.8458
2023-05-05T01:21:39.720Z,74.0384
2023-05-05T01:22:40.871Z,74.2661
2023-05-05T01:23:41.694Z,74.4427
2023-05-05T01:24:43.325Z,74.7731
2023-05-05T01:25:43.449Z,75.0648
2023-05-05T01:26:44.260Z,75.1769
2023-05-05T01:27:45.045Z,75.3581
2023-05-05T01:30:47.184Z,76.3497
2023-05-05T01:31:48.303Z,76.8320
2023-05-05T01:36:51.868Z,78.1348
2023-05-05T01:37:51.911Z,78.1259
2023-05-05T01:38:51.981Z,78.4509
2023-05-05T01:39:52.430Z,78.3629
2023-05-05T01:40:53.636Z,78.7002
2023-05-05T01:41:55.793Z,78.6754
2023-05-05T01:42:58.013Z,78.8257
2023-05-05T01:44:00.275Z,78.9561
2023-05-05T01:45:02.319Z,79.0263
2023-05-05T01:46:03.449Z,79.2274
2023-05-05T01:47:04.491Z,79.3321
2023-05-05T01:54:15.317Z,78.7174
2023-05-05T02:00:19.223Z,77.9573
2023-05-05T02:01:19.766Z,77.7870
2023-05-05T02:03:20.976Z,77.6945
2023-05-05T02:04:22.030Z,77.7053
2023-05-05T02:05:22.887Z,77.0081
2023-05-05T02:06:22.973Z,76.9954
2023-05-05T02:07:24.647Z,76.8155
2023-05-05T02:08:24.344Z,76.7613
2023-05-05T02:09:25.332Z,76.1093
2023-05-05T02:10:26.071Z,75.9490
2023-05-05T02:11:26.115Z,75.5860
2023-05-05T02:12:29.661Z,75.0683
2023-05-05T02:13:26.841Z,74.0304
2023-05-05T02:14:27.137Z,73.7643
2023-05-05T02:15:27.952Z,73.5606
2023-05-05T02:16:29.119Z,73.2965
2023-05-05T02:17:30.086Z,73.4526
2023-05-05T02:18:30.849Z,73.5416
2023-05-05T02:19:31.681Z,73.7403
2023-05-05T02:20:31.770Z,73.8380
2023-05-05T02:21:32.693Z,73.7779
2023-05-05T02:22:33.552Z,73.5703
2023-05-05T02:23:34.311Z,73.5160
2023-05-05T02:24:35.104Z,72.9834
2023-05-05T02:25:36.399Z,72.3915
2023-05-05T02:26:37.280Z,72.2737
2023-05-05T02:27:38.256Z,72.0538
2023-05-05T02:28:38.938Z,71.9021
2023-05-05T02:29:40.241Z,72.0508
2023-05-05T02:30:40.637Z,72.2246
2023-05-05T02:31:41.670Z,72.2269
2023-05-05T02:32:42.927Z,72.0671
2023-05-05T02:33:43.828Z,72.4769
2023-05-05T02:34:44.540Z,72.5950
2023-05-05T02:35:45.493Z,72.4669
2023-05-05T02:36:46.260Z,72.3662
2023-05-05T02:37:47.122Z,72.6975
2023-05-05T02:38:48.120Z,72.9814
2023-05-05T02:39:48.751Z,73.3501
2023-05-05T02:42:50.067Z,74.1506
2023-05-05T02:44:50.394Z,75.2821
2023-05-05T02:45:51.380Z,75.7168
2023-05-05T02:46:52.534Z,76.1006
2023-05-05T02:47:53.717Z,76.2333
2023-05-05T02:48:54.204Z,76.6959
2023-05-05T02:49:55.409Z,77.1839
2023-05-05T02:50:55.371Z,77.6229
2023-05-05T02:51:56.000Z,78.0146
2023-05-05T02:52:56.690Z,78.0703
2023-05-05T02:53:57.554Z,78.2215
2023-05-05T02:54:57.921Z,78.6168
2023-05-05T02:55:58.365Z,78.9394
2023-05-05T02:56:59.541Z,78.9549
2023-05-05T02:58:00.426Z,78.9564
2023-05-05T02:59:01.268Z,79.0123
2023-05-05T03:00:01.321Z,78.9716
2023-05-05T03:01:01.985Z,79.1628
2023-05-05T03:02:02.217Z,79.2790
2023-05-05T03:03:03.594Z,79.2427
2023-05-05T03:04:03.775Z,79.1557
2023-05-05T03:05:04.643Z,79.0552
2023-05-05T03:06:05.548Z,79.1150
2023-05-05T03:07:06.455Z,79.1800
2023-05-05T03:08:07.354Z,79.2095
2023-05-05T03:09:08.227Z,79.3646
2023-05-05T03:10:09.444Z,79.3566
2023-05-05T03:11:09.268Z,79.1403
2023-05-05T03:12:10.065Z,79.2064
2023-05-05T03:13:11.368Z,79.2458
2023-05-05T03:14:12.154Z,79.5648
2023-05-05T03:15:13.087Z,79.8242
2023-05-05T03:16:14.132Z,79.8512
2023-05-05T03:17:15.057Z,79.8051
2023-05-05T03:18:16.398Z,79.8354
2023-05-05T03:19:17.092Z,79.6423
2023-05-05T03:20:17.404Z,79.4510
2023-05-05T03:21:18.445Z,79.4540
2023-05-05T03:22:19.158Z,79.1333
2023-05-05T03:23:20.355Z,78.5041
2023-05-05T03:24:20.224Z,78.2579
2023-05-05T03:25:20.991Z,77.7008
2023-05-05T03:26:21.659Z,77.1673
2023-05-05T03:27:22.544Z,76.8172
2023-05-05T03:28:23.732Z,76.6509
2023-05-05T03:29:23.950Z,76.6395
2023-05-05T03:30:24.001Z,76.7267
2023-05-05T03:31:24.489Z,76.9973
2023-05-05T03:34:17.766Z,76.7568
2023-05-05T03:35:18.643Z,76.5859
2023-05-05T03:36:19.471Z,76.5493
2023-05-05T03:37:20.350Z,76.4234
2023-05-05T03:38:21.217Z,76.5249
2023-05-05T03:39:21.904Z,76.2532
2023-05-05T03:40:29.618Z,76.2462
2023-05-05T03:41:23.516Z,76.0199
2023-05-05T03:42:24.155Z,76.1683
2023-05-05T03:43:24.974Z,76.2057
2023-05-05T03:44:25.709Z,76.2288
2023-05-05T03:45:26.659Z,76.0771
2023-05-05T03:46:27.674Z,76.1053
2023-05-05T03:47:29.623Z,76.0966
2023-05-05T03:49:30.320Z,75.9349
2023-05-05T03:50:30.466Z,76.1139
2023-05-05T03:51:31.023Z,75.9783
2023-05-05T03:52:31.553Z,75.7836
2023-05-05T03:53:32.377Z,75.4978
2023-05-05T03:54:33.671Z,75.5192
2023-05-05T03:55:34.699Z,75.5502
2023-05-05T03:56:35.978Z,75.4536
2023-05-05T03:57:36.757Z,75.2429
2023-05-05T03:58:37.256Z,75.1454
2023-05-05T03:59:38.267Z,75.2159
2023-05-05T04:00:39.603Z,75.2598
2023-05-05T04:01:40.527Z,75.4178
2023-05-05T04:02:41.346Z,75.5167
2023-05-05T04:03:43.329Z,75.5455
2023-05-05T04:04:44.702Z,75.7030
2023-05-05T04:05:44.846Z,75.7810
2023-05-05T04:06:46.813Z,75.7863
2023-05-05T04:07:47.890Z,75.9850
2023-05-05T04:08:48.718Z,76.1294
2023-05-05T04:09:49.600Z,76.3218
2023-05-05T04:10:49.645Z,76.2952
2023-05-05T04:11:49.859Z,76.2259
2023-05-05T04:12:51.031Z,76.2605
2023-05-05T04:13:52.053Z,76.1707
2023-05-05T04:14:52.689Z,76.4478
2023-05-05T04:16:53.321Z,76.6976
2023-05-05T04:17:53.565Z,76.8171
2023-05-05T04:18:54.538Z,77.0013
2023-05-05T04:19:55.374Z,77.5766
2023-05-05T04:20:55.408Z,78.0661
2023-05-05T04:21:55.901Z,78.4022
2023-05-05T04:22:58.248Z,78.7329
2023-05-05T04:23:59.144Z,78.9123
2023-05-05T04:25:00.301Z,79.1257
2023-05-05T04:26:01.135Z,79.3635
2023-05-05T04:27:02.055Z,79.5666
2023-05-05T04:29:02.815Z,79.7835
2023-05-05T04:30:03.854Z,79.7957
2023-05-05T04:32:04.459Z,79.6837
2023-05-05T04:33:04.612Z,79.7571
2023-05-05T04:34:05.408Z,79.9606
2023-05-05T04:35:06.431Z,79.6466
2023-05-05T04:36:07.472Z,78.9594
2023-05-05T04:37:08.304Z,79.2448
2023-05-05T04:38:09.365Z,79.1704
2023-05-05T04:39:10.522Z,79.2567
2023-05-05T04:40:11.352Z,79.3247
2023-05-05T04:41:12.338Z,77.9395
2023-05-05T04:42:12.533Z,77.7738
2023-05-05T04:43:13.500Z,77.9288
2023-05-05T04:44:14.533Z,77.8063
2023-05-05T04:45:15.295Z,77.4257
2023-05-05T04:46:16.326Z,76.7611
2023-05-05T04:47:16.302Z,76.4006
2023-05-05T04:48:16.343Z,76.4310
2023-05-05T04:49:17.514Z,76.5446
2023-05-05T04:50:17.501Z,76.9523
2023-05-05T04:51:18.456Z,77.3826
2023-05-05T04:52:19.329Z,77.3183
2023-05-05T04:53:20.187Z,77.5667
2023-05-05T04:54:21.201Z,77.5659
2023-05-05T04:55:22.003Z,77.6072
2023-05-05T04:56:22.979Z,77.5595
2023-05-05T04:57:24.016Z,77.6650
2023-05-05T04:58:24.893Z,77.8420
2023-05-05T04:59:25.887Z,78.1047
2023-05-05T05:00:26.668Z,78.2936
2023-05-05T05:01:27.860Z,78.4707
2023-05-05T05:02:28.286Z,78.9075
2023-05-05T05:03:28.489Z,78.8194
2023-05-05T05:04:28.811Z,77.9748
2023-05-05T05:05:29.789Z,77.9360
2023-05-05T05:06:30.777Z,78.0455
2023-05-05T05:07:30.818Z,78.0531
2023-05-05T05:08:31.680Z,77.9880
2023-05-05T05:09:32.633Z,77.7962
2023-05-05T05:10:33.600Z,78.2451
2023-05-05T05:11:34.967Z,78.4323
2023-05-05T05:12:35.115Z,78.6200
2023-05-05T05:13:35.407Z,78.7030
2023-05-05T05:14:36.423Z,78.9905
2023-05-05T05:15:36.812Z,79.1940
2023-05-05T05:16:37.094Z,79.2607
2023-05-05T05:17:38.197Z,79.8967
2023-05-05T05:18:39.662Z,80.0701
2023-05-05T05:19:40.079Z,80.5202
2023-05-05T05:20:40.756Z,81.2778
2023-05-05T05:21:40.891Z,81.8698
2023-05-05T05:22:41.519Z,82.5404
2023-05-05T05:23:42.080Z,82.6946
2023-05-05T05:24:43.231Z,82.7362
2023-05-05T05:25:43.315Z,83.0863
2023-05-05T05:26:44.607Z,84.1147
2023-05-05T05:27:50.172Z,84.4505
2023-05-05T05:28:45.870Z,84.8299
2023-05-05T05:29:46.748Z,84.9015
2023-05-05T05:30:47.486Z,84.8410
2023-05-05T05:31:47.478Z,84.8905
2023-05-05T05:32:49.102Z,84.8394
2023-05-05T05:33:49.085Z,84.8845
2023-05-05T05:34:49.925Z,84.7553
2023-05-05T05:35:50.065Z,84.8008
2023-05-05T05:36:51.069Z,84.8937
2023-05-05T05:37:51.107Z,84.8961
2023-05-05T05:38:52.396Z,84.7588
2023-05-05T05:39:53.443Z,84.8314
2023-05-05T05:40:53.976Z,84.7788
2023-05-05T05:41:54.886Z,84.8187
2023-05-05T05:42:56.265Z,84.7815
2023-05-05T05:43:57.318Z,84.6562
2023-05-05T05:44:58.147Z,84.6140
2023-05-05T05:45:58.317Z,84.5308
2023-05-05T05:46:58.909Z,84.4258
2023-05-05T05:48:00.045Z,84.3699
2023-05-05T05:49:00.019Z,84.2101
2023-05-05T05:50:01.229Z,84.0662
2023-05-05T05:51:02.448Z,83.7679
2023-05-05T05:52:02.290Z,83.9075
2023-05-05T05:53:02.952Z,83.7987
2023-05-05T05:54:04.159Z,82.1759
2023-05-05T05:55:05.090Z,81.3380
2023-05-05T05:56:06.301Z,81.0559
2023-05-05T05:57:07.597Z,81.3202
2023-05-05T05:58:08.484Z,81.1280
2023-05-05T05:59:09.537Z,81.0078
2023-05-05T06:00:11.662Z,80.6707
2023-05-05T06:01:12.505Z,79.7469
2023-05-05T06:02:13.885Z,78.6671
2023-05-05T06:03:14.876Z,77.5244
2023-05-05T06:04:15.955Z,76.7402
2023-05-05T06:05:15.887Z,76.4894
2023-05-05T06:06:16.762Z,76.5060
2023-05-05T06:07:17.740Z,76.7036
2023-05-05T06:08:19.070Z,77.2702
2023-05-05T06:09:19.936Z,76.9795
2023-05-05T06:10:28.047Z,77.5858
2023-05-05T06:11:24.873Z,78.3491
2023-05-05T06:12:25.703Z,79.1174
2023-05-05T06:13:25.867Z,79.4467
2023-05-05T06:14:26.516Z,79.6394
2023-05-05T06:15:27.650Z,79.9977
2023-05-05T06:16:29.020Z,79.3289
2023-05-05T06:17:30.046Z,78.1705
2023-05-05T06:18:30.854Z,77.4937
2023-05-05T06:19:31.693Z,76.3912
2023-05-05T06:20:32.681Z,74.7111
2023-05-05T06:21:33.701Z,75.1866
2023-05-05T06:22:34.645Z,75.8307
2023-05-05T06:23:35.629Z,75.4446
2023-05-05T06:24:36.636Z,75.2802
2023-05-05T06:25:37.544Z,74.6085
2023-05-05T06:26:38.547Z,73.6325
2023-05-05T06:27:39.493Z,73.7100
2023-05-05T06:28:40.669Z,74.0406
2023-05-05T06:29:41.798Z,73.9661
2023-05-05T06:30:43.049Z,73.8236
2023-05-05T06:31:44.327Z,73.2780
2023-05-05T06:32:45.480Z,72.2896
2023-05-05T06:33:46.525Z,72.4424
2023-05-05T06:34:46.632Z,72.7442
2023-05-05T06:35:47.824Z,73.2037
2023-05-05T06:36:48.214Z,73.4251
2023-05-05T06:37:50.259Z,72.7561
2023-05-05T06:40:50.534Z,72.7361
2023-05-05T06:41:51.882Z,71.5979
2023-05-05T06:42:53.050Z,70.8311
2023-05-05T06:43:54.549Z,71.2602
2023-05-05T06:44:55.003Z,71.6941
2023-05-05T06:45:56.191Z,72.8053
2023-05-05T06:46:56.219Z,72.2024
2023-05-05T06:47:57.643Z,71.6547
2023-05-05T06:48:57.597Z,70.9161
2023-05-05T06:49:58.717Z,70.4325
2023-05-05T06:50:59.417Z,69.9641
2023-05-05T06:52:00.097Z,69.0052
2023-05-05T06:53:01.109Z,68.5507
2023-05-05T06:54:02.331Z,68.9764
2023-05-05T06:55:02.984Z,69.1012
2023-05-05T06:56:04.124Z,68.3919
2023-05-05T06:57:04.269Z,68.9824
2023-05-05T06:58:05.230Z,68.7131
2023-05-05T06:59:06.426Z,69.2009
2023-05-05T07:00:07.832Z,68.7261
2023-05-05T07:01:08.111Z,66.6521
2023-05-05T07:02:08.184Z,67.3251
2023-05-05T07:03:08.302Z,68.2277
2023-05-05T07:04:08.549Z,68.2858
2023-05-05T07:05:09.648Z,67.7800
2023-05-05T07:06:10.747Z,68.5656
2023-05-05T07:07:12.012Z,68.4510
2023-05-05T07:08:13.085Z,67.8318
2023-05-05T07:09:15.755Z,68.6380
2023-05-05T07:10:15.653Z,69.1373
2023-05-05T07:11:16.422Z,68.6769
2023-05-05T07:12:17.622Z,69.4042
2023-05-05T07:13:19.001Z,68.6859
2023-05-05T07:14:19.041Z,68.7920
2023-05-05T07:15:29.096Z,68.8483
2023-05-05T07:16:24.623Z,68.4064
2023-05-05T07:17:25.864Z,68.5983
2023-05-05T07:18:25.872Z,68.0457
2023-05-05T07:19:26.770Z,67.3993
2023-05-05T07:20:27.922Z,67.1324
2023-05-05T07:21:28.928Z,67.1313
2023-05-05T07:22:30.116Z,67.3574
2023-05-05T07:23:31.265Z,67.3697
2023-05-05T07:24:32.261Z,66.7548
2023-05-05T07:25:33.399Z,66.7507
2023-05-05T07:26:34.711Z,66.1562
2023-05-05T07:27:35.811Z,66.7694
2023-05-05T07:28:36.930Z,67.0710
2023-05-05T07:29:37.833Z,66.8989
2023-05-05T07:30:38.260Z,66.4162
2023-05-05T07:31:39.547Z,66.2122
2023-05-05T07:32:39.614Z,66.0187
2023-05-05T07:33:40.761Z,65.9641
2023-05-05T07:34:41.626Z,66.1626
2023-05-05T07:35:42.597Z,65.4546
2023-05-05T07:36:43.756Z,65.7076
2023-05-05T07:37:44.718Z,65.5895
2023-05-05T07:38:44.965Z,65.6108
2023-05-05T07:39:45.939Z,65.9386
2023-05-05T07:40:46.649Z,65.7972
2023-05-05T07:41:47.811Z,65.9533
2023-05-05T07:42:48.826Z,66.3124
2023-05-05T07:43:49.951Z,66.1579
2023-05-05T07:44:50.957Z,66.0476
2023-05-05T07:45:52.133Z,66.3013
2023-05-05T07:46:52.137Z,66.1787
2023-05-05T07:47:53.249Z,65.5111
2023-05-05T07:49:54.211Z,65.7407
2023-05-05T07:50:54.619Z,66.0760
2023-05-05T07:51:55.873Z,65.7187
2023-05-05T07:53:02.525Z,65.1521
2023-05-05T07:53:56.873Z,65.7010
2023-05-05T07:54:57.074Z,65.8172
2023-05-05T07:55:58.079Z,66.4283
2023-05-05T07:56:59.023Z,65.7917
2023-05-05T07:58:00.200Z,65.4519
2023-05-05T07:59:01.299Z,65.5235
2023-05-05T08:00:02.151Z,65.6263
2023-05-05T08:01:02.226Z,65.5599
2023-05-05T08:02:03.138Z,65.3900
2023-05-05T08:03:03.878Z,65.4018
2023-05-05T08:04:04.938Z,65.9347
2023-05-05T08:05:05.060Z,65.7714
2023-05-05T08:06:04.990Z,65.4021
2023-05-05T08:07:06.102Z,65.5192
2023-05-05T08:08:06.706Z,65.9192
2023-05-05T08:09:07.624Z,66.2685
2023-05-05T08:10:08.916Z,66.4823
2023-05-05T08:11:10.037Z,65.8486
2023-05-05T08:12:10.763Z,65.5146
2023-05-05T08:13:11.071Z,65.2662
2023-05-05T08:14:12.289Z,65.3538
2023-05-05T08:15:12.588Z,65.7621
2023-05-05T08:16:12.708Z,66.1852
2023-05-05T08:17:13.845Z,65.5438
2023-05-05T08:18:14.017Z,66.1782
2023-05-05T08:19:27.566Z,66.2983
2023-05-05T08:20:14.638Z,66.1579
2023-05-05T08:21:14.744Z,65.8489
2023-05-05T08:22:15.881Z,66.0248
2023-05-05T08:23:16.010Z,66.3761
2023-05-05T08:24:17.403Z,65.5621
2023-05-05T08:25:18.667Z,65.6205
2023-05-05T08:26:18.845Z,65.3473
2023-05-05T08:27:19.812Z,64.9379
2023-05-05T08:28:19.895Z,64.5175
2023-05-05T08:29:20.913Z,64.1029
2023-05-05T08:30:20.963Z,63.5063
2023-05-05T08:31:22.211Z,62.8358
2023-05-05T08:34:23.877Z,63.1759
2023-05-05T08:35:24.301Z,63.2370
2023-05-05T08:36:25.543Z,63.2217
2023-05-05T08:37:26.558Z,63.2470
2023-05-05T08:38:27.720Z,62.8353
2023-05-05T08:39:27.998Z,62.2262
2023-05-05T08:40:28.584Z,62.0228
2023-05-05T08:41:29.640Z,62.0842
2023-05-05T08:42:36.937Z,62.0018
2023-05-05T08:43:31.931Z,62.2243
2023-05-05T08:44:33.150Z,62.4663
2023-05-05T08:45:34.059Z,62.6865
2023-05-05T08:46:35.265Z,62.0516
2023-05-05T08:47:35.496Z,61.7700
2023-05-05T08:48:35.734Z,61.6605
2023-05-05T08:50:36.732Z,61.7823
2023-05-05T08:51:37.503Z,61.9100
2023-05-05T08:52:39.080Z,61.2634
2023-05-05T08:53:40.164Z,62.0314
2023-05-05T08:54:40.221Z,61.6050
2023-05-05T08:55:40.695Z,61.8615
2023-05-05T08:56:41.984Z,61.4572
2023-05-05T08:57:43.406Z,61.4703
2023-05-05T08:58:44.386Z,61.3420
2023-05-05T08:59:44.453Z,60.4655
2023-05-05T09:00:45.735Z,60.6750
2023-05-05T09:01:45.990Z,60.3279
2023-05-05T09:02:46.242Z,60.7682
2023-05-05T09:03:47.266Z,61.3001
2023-05-05T09:04:48.556Z,61.4820
2023-05-05T09:05:49.049Z,61.9178
2023-05-05T09:06:49.131Z,61.8035
2023-05-05T09:07:50.384Z,61.9416
2023-05-05T09:08:51.676Z,62.4538
2023-05-05T09:09:51.693Z,61.7259
2023-05-05T09:10:51.997Z,61.9936
2023-05-05T09:11:53.162Z,62.2050
2023-05-05T09:12:53.251Z,62.3727
2023-05-05T09:13:53.462Z,61.9721
2023-05-05T09:14:53.402Z,61.4607
2023-05-05T09:15:53.538Z,61.8866
2023-05-05T09:16:53.547Z,61.7777
2023-05-05T09:17:53.767Z,60.6657
2023-05-05T09:18:54.982Z,60.5319
2023-05-05T09:19:55.046Z,60.3849
2023-05-05T09:20:58.143Z,60.3931
2023-05-05T09:21:56.743Z,60.6755
2023-05-05T09:22:57.976Z,60.8359
2023-05-05T09:24:04.897Z,61.2112
2023-05-05T09:24:59.700Z,61.2116
2023-05-05T09:25:59.917Z,61.3206
2023-05-05T09:27:01.356Z,61.2959
2023-05-05T09:28:01.327Z,61.6484
2023-05-05T09:29:01.418Z,60.7991
2023-05-05T09:30:02.653Z,59.7628
2023-05-05T09:31:02.736Z,59.8393
2023-05-05T09:32:02.828Z,59.7457
2023-05-05T09:33:03.559Z,59.5038
2023-05-05T09:34:04.720Z,59.6723
2023-05-05T09:35:04.730Z,59.3636
2023-05-05T09:36:04.877Z,59.3507
2023-05-05T09:37:06.370Z,59.6696
2023-05-05T09:38:07.017Z,59.5627
2023-05-05T09:39:07.280Z,60.3107
2023-05-05T09:40:07.389Z,61.0584
2023-05-05T09:41:08.637Z,61.6792
2023-05-05T09:42:09.910Z,61.4324
2023-05-05T09:43:10.073Z,61.2196
2023-05-05T09:44:10.164Z,60.8945
2023-05-05T09:45:11.342Z,60.9686
2023-05-05T09:46:11.545Z,60.9157
2023-05-05T09:47:28.989Z,60.9034
2023-05-05T09:48:17.325Z,60.9718
2023-05-05T09:49:17.453Z,61.1982
2023-05-05T09:50:17.757Z,60.8237
2023-05-05T09:51:17.843Z,61.2046
2023-05-05T09:52:17.863Z,61.4214
2023-05-05T09:53:18.177Z,61.1365
2023-05-05T09:54:18.278Z,60.7900
2023-05-05T09:55:18.650Z,59.7544
2023-05-05T09:56:19.119Z,59.3129
2023-05-05T09:57:20.404Z,59.0714
2023-05-05T09:58:20.703Z,58.1336
2023-05-05T09:59:20.629Z,57.9857
2023-05-05T10:00:21.293Z,57.9974
2023-05-05T10:01:21.266Z,57.9201
2023-05-05T10:02:21.598Z,57.9234
2023-05-05T10:03:21.722Z,57.6962
2023-05-05T10:04:21.879Z,58.0470
2023-05-05T10:05:22.110Z,58.4933
2023-05-05T10:06:22.396Z,58.5155
2023-05-05T10:07:23.685Z,58.5786
2023-05-05T10:08:23.712Z,58.2836
2023-05-05T10:09:25.323Z,57.3659
2023-05-05T10:10:26.920Z,56.9218
2023-05-05T10:11:25.865Z,57.1822
2023-05-05T10:12:27.021Z,58.1645
2023-05-05T10:13:27.361Z,58.1751
2023-05-05T10:14:28.612Z,58.2391
2023-05-05T10:15:28.899Z,57.1032
2023-05-05T10:16:29.712Z,57.1189
2023-05-05T10:17:30.282Z,56.6489
2023-05-05T10:18:30.947Z,56.1638
2023-05-05T10:19:30.873Z,55.8353
2023-05-05T10:20:31.087Z,55.9929
2023-05-05T10:21:31.140Z,55.9329
2023-05-05T10:22:31.325Z,56.1071
2023-05-05T10:23:31.464Z,57.0190
2023-05-05T10:24:31.746Z,58.0253
2023-05-05T10:27:33.220Z,56.6057
2023-05-05T10:28:33.347Z,57.2508
2023-05-05T10:29:34.827Z,56.6869
2023-05-05T10:30:35.417Z,57.0052
2023-05-05T10:31:35.551Z,56.5002
2023-05-05T10:33:42.679Z,56.2562
2023-05-05T10:34:43.809Z,55.6466
2023-05-05T10:35:45.028Z,55.1588
2023-05-05T10:36:45.333Z,55.0151
2023-05-05T10:37:45.242Z,55.1911
2023-05-05T10:38:45.304Z,55.4261
2023-05-05T10:39:46.760Z,55.6175
2023-05-05T10:40:47.625Z,55.1371
2023-05-05T10:41:48.004Z,55.3452
2023-05-05T10:42:48.004Z,54.8040
2023-05-05T10:43:48.171Z,54.6422
2023-05-05T10:44:48.286Z,54.8044
2023-05-05T10:45:49.115Z,54.7296
2023-05-05T10:46:49.663Z,55.1162
2023-05-05T10:47:50.118Z,55.2838
2023-05-05T10:48:50.744Z,55.1803
2023-05-05T10:49:50.689Z,55.4197
2023-05-05T10:50:50.823Z,55.2967
2023-05-05T10:51:51.407Z,55.0679
2023-05-05T10:52:51.683Z,55.2975
2023-05-05T10:53:52.978Z,54.8574
2023-05-05T10:54:53.418Z,54.7253
2023-05-05T10:55:53.386Z,54.3881
2023-05-05T10:56:53.820Z,54.2226
2023-05-05T10:57:53.831Z,53.9533
2023-05-05T10:59:00.141Z,54.0037
2023-05-05T10:59:55.230Z,53.9958
2023-05-05T11:00:55.503Z,54.2494
2023-05-05T11:01:56.291Z,54.6997
2023-05-05T11:02:57.236Z,54.9253
2023-05-05T11:03:57.949Z,54.8460
2023-05-05T11:04:58.233Z,54.9647
2023-05-05T11:05:58.380Z,53.6401
2023-05-05T11:06:59.649Z,53.5968
2023-05-05T11:08:00.709Z,53.6610
2023-05-05T11:09:00.821Z,53.6724
2023-05-05T11:10:01.002Z,53.7657
2023-05-05T11:11:01.860Z,53.0002
2023-05-05T11:12:02.315Z,52.3499
2023-05-05T11:13:02.750Z,52.3920
2023-05-05T11:14:03.757Z,51.9670
2023-05-05T11:15:03.919Z,52.3096
2023-05-05T11:16:04.097Z,52.9979
2023-05-05T11:17:04.681Z,52.0893
2023-05-05T11:18:07.376Z,50.9945
2023-05-05T11:19:05.063Z,50.7077
2023-05-05T11:20:05.121Z,50.6249
2023-05-05T11:21:05.481Z,51.0002
2023-05-05T11:22:05.689Z,50.5959
2023-05-05T11:23:05.886Z,51.6965
2023-05-05T11:24:06.056Z,51.6445
2023-05-05T11:25:07.249Z,50.3320
2023-05-05T11:26:07.502Z,49.7274
2023-05-05T11:27:08.921Z,49.5051
2023-05-05T11:28:09.107Z,49.7933
2023-05-05T11:29:09.272Z,50.6239
2023-05-05T11:30:10.520Z,50.0011
2023-05-05T11:31:10.709Z,50.1243
2023-05-05T11:32:11.010Z,49.2282
2023-05-05T11:33:11.141Z,50.2759
2023-05-05T11:34:12.378Z,50.1743
2023-05-05T11:35:12.497Z,50.6567
2023-05-05T11:36:13.950Z,50.3009
2023-05-05T11:37:15.285Z,50.6794
2023-05-05T11:38:15.478Z,49.5685
2023-05-05T11:39:16.763Z,48.1470
2023-05-05T11:40:17.019Z,47.9884
2023-05-05T11:41:17.071Z,47.6077
2023-05-05T11:42:18.305Z,47.6643
2023-05-05T11:43:18.530Z,47.3009
2023-05-05T11:44:18.570Z,47.1626
2023-05-05T11:45:18.693Z,47.4906
2023-05-05T11:46:19.104Z,47.1612
2023-05-05T11:47:19.596Z,46.8880
2023-05-05T11:48:20.080Z,46.6196
2023-05-05T11:49:20.637Z,46.5406
2023-05-05T11:50:20.590Z,46.0610
2023-05-05T11:51:20.714Z,46.2367
2023-05-05T11:52:20.765Z,46.8109
2023-05-05T11:53:21.050Z,47.1878
2023-05-05T11:54:21.285Z,47.4667
2023-05-05T11:55:21.369Z,48.3195
2023-05-05T11:56:22.810Z,47.6300
2023-05-05T11:57:22.895Z,47.0278
2023-05-05T11:58:23.136Z,47.4647
2023-05-05T11:59:24.423Z,47.6788
2023-05-05T12:00:24.621Z,47.9666
2023-05-05T12:01:25.915Z,48.2892
2023-05-05T12:02:26.332Z,48.2811
2023-05-05T12:03:28.138Z,49.3678
2023-05-05T12:04:28.533Z,50.4092
2023-05-05T12:05:28.916Z,49.0236
2023-05-05T12:06:29.233Z,48.4520
2023-05-05T12:07:29.370Z,48.7466
2023-05-05T12:08:29.402Z,48.7758
2023-05-05T12:09:29.503Z,49.0800
2023-05-05T12:10:30.642Z,48.6070
2023-05-05T12:11:31.966Z,49.4579
2023-05-05T12:12:32.337Z,49.0513
2023-05-05T12:13:33.246Z,48.1222
2023-05-05T12:14:34.464Z,47.7171
2023-05-05T12:15:34.676Z,46.1583
2023-05-05T12:16:34.882Z,45.9847
2023-05-05T12:17:35.533Z,45.8942
2023-05-05T12:18:36.222Z,45.8722
2023-05-05T12:19:36.337Z,45.9001
2023-05-05T12:20:37.680Z,46.7520
2023-05-05T12:21:37.860Z,47.6318
2023-05-05T12:22:38.058Z,47.0786
2023-05-05T12:23:38.616Z,46.2935
2023-05-05T12:24:38.630Z,46.1076
2023-05-05T12:25:38.864Z,45.9291
2023-05-05T12:26:38.876Z,46.1874
2023-05-05T12:27:39.285Z,45.7598
2023-05-05T12:28:39.356Z,45.5404
2023-05-05T12:29:39.623Z,45.2968
2023-05-05T12:30:40.655Z,45.1710
2023-05-05T12:31:41.095Z,44.8511
2023-05-05T12:32:41.716Z,44.7304
2023-05-05T12:33:41.942Z,44.4908
2023-05-05T12:34:42.107Z,44.2948
2023-05-05T12:35:42.100Z,44.2371
2023-05-05T12:36:42.685Z,44.8096
2023-05-05T12:37:43.914Z,44.2650
2023-05-05T12:38:44.154Z,43.5115
2023-05-05T12:39:45.634Z,42.4328
2023-05-05T12:40:46.407Z,43.3624
2023-05-05T12:41:46.537Z,44.0995
2023-05-05T12:42:46.627Z,44.3797
2023-05-05T12:43:46.822Z,45.2392
2023-05-05T12:44:46.800Z,44.6963
2023-05-05T12:45:47.135Z,44.6700
2023-05-05T12:46:47.617Z,44.5673
2023-05-05T12:47:48.059Z,44.2037
2023-05-05T12:48:48.601Z,43.4425
2023-05-05T12:49:48.941Z,42.5852
2023-05-05T12:50:50.450Z,42.6044
2023-05-05T12:51:50.516Z,42.4238
2023-05-05T12:52:50.724Z,42.5106
2023-05-05T12:53:51.753Z,42.7960
2023-05-05T12:54:52.953Z,42.9481
2023-05-05T12:55:53.277Z,42.5060
2023-05-05T12:56:53.482Z,41.5226
2023-05-05T12:57:53.666Z,42.5256
2023-05-05T12:58:53.864Z,43.2688
2023-05-05T12:59:55.174Z,45.0531
2023-05-05T13:00:55.739Z,43.8169
2023-05-05T13:01:56.202Z,44.6578